Terminal Aerodrome Forecast
Issued by NWS Upton, NY

Home | Current Version | Previous Version | Text Only | Print | Product List | Glossary On
Versions: 1 2 3 4 5 6 7 8 9 10 11 12 13 14 15 16 17 18 19 20 21 22 23 24 25 26 27 28 29 30 31 32 33
590
FTUS41 KOKX 201555 AAB
TAFEWR
TAF AMD
KEWR 201555Z 2016/2118 29006KT P6SM FEW050 SCT250
     FM201800 26010KT P6SM SCT050 SCT250
      TEMPO 2018/2021 26011G18KT
     FM210200 26007KT P6SM SCT050 SCT170 PROB30 2102/2105 3SM TSRA
      BKN040CB
     FM210700 31007KT P6SM FEW060
     FM211600 29008KT P6SM FEW040=

USA.gov is the U.S. government's official web portal to all federal, state and local government web resources and services.